Terminal Aerodrome Forecast
Issued by NWS

Home | Current Version | Previous Version | Text Only | Print | Product List | Glossary On
Versions: 1 2 3 4 5 6 7 8 9 10 11 12
000
FTUS42 TJSJ 061730
TAFJPS
TAF
TJPS 061730Z 0618/0718 11009KT P6SM FEW030
     FM062330 05005KT P6SM SKC
     FM071330 13012G25KT P6SM FEW030 FEW050
      AMD NOT SKED TIL 070300=

USA.gov is the U.S. government's official web portal to all federal, state and local government web resources and services.